Terminal Aerodrome Forecast
Issued by NWS Spokane, WA

Home | Current Version | Previous Version | Text Only | Print | Product List | Glossary On
Versions: 1 2 3 4 5 6 7 8 9 10 11 12 13 14 15 16 17 18 19 20 21 22 23 24 25 26 27 28 29 30 31 32 33
000
FTUS46 KOTX 081139
TAFGEG
TAF
KGEG 081139Z 0812/0912 03005KT P6SM VCFG BKN200
     FM081400 06004KT 6SM MIFG BKN200
     FM081700 06004KT P6SM SCT200
     FM090600 03003KT 6SM BR SCT002
     FM091000 VRB03KT 1SM BR OVC003=

USA.gov is the U.S. government's official web portal to all federal, state and local government web resources and services.